createdAt,value
2022-10-07T00:00:24.722Z,10.60
2022-10-07T00:03:32.590Z,10.57
2022-10-07T00:06:38.535Z,10.53
2022-10-07T00:09:48.022Z,10.51
2022-10-07T00:12:53.621Z,10.48
2022-10-07T00:16:07.367Z,10.43
2022-10-07T00:19:16.133Z,10.39
2022-10-07T00:22:22.708Z,10.31
2022-10-07T00:25:31.032Z,10.27
2022-10-07T00:28:38.523Z,10.26
2022-10-07T00:31:44.668Z,10.22
2022-10-07T00:34:51.137Z,10.22
2022-10-07T00:37:56.930Z,10.18
2022-10-07T00:41:06.808Z,10.14
2022-10-07T00:44:38.802Z,10.15
2022-10-07T00:47:48.648Z,10.12
2022-10-07T00:50:56.865Z,10.08
2022-10-07T00:54:06.599Z,10.09
2022-10-07T00:57:15.367Z,10.07
2022-10-07T01:00:23.634Z,10.06
2022-10-07T01:03:29.237Z,10.06
2022-10-07T01:06:38.305Z,10.10
2022-10-07T01:09:44.544Z,10.09
2022-10-07T01:13:07.177Z,10.11
2022-10-07T01:16:21.858Z,10.09
2022-10-07T01:20:00.451Z,10.10
2022-10-07T01:23:44.540Z,10.07
2022-10-07T01:26:58.428Z,10.03
2022-10-07T01:30:09.581Z,10.02
2022-10-07T01:33:20.494Z,9.97
2022-10-07T01:36:28.226Z,9.92
2022-10-07T01:39:42.865Z,9.86
2022-10-07T01:42:52.839Z,9.86
2022-10-07T01:45:59.986Z,9.87
2022-10-07T01:49:09.714Z,9.87
2022-10-07T01:52:42.638Z,9.87
2022-10-07T01:55:58.510Z,9.85
2022-10-07T01:59:27.573Z,9.86
2022-10-07T02:02:48.299Z,9.84
2022-10-07T02:06:00.855Z,9.82
2022-10-07T02:09:21.426Z,9.82
2022-10-07T02:12:37.356Z,9.79
2022-10-07T02:15:50.903Z,9.76
2022-10-07T02:18:58.694Z,9.73
2022-10-07T02:22:06.992Z,9.71
2022-10-07T02:25:17.671Z,9.68
2022-10-07T02:28:27.341Z,9.67
2022-10-07T02:31:38.196Z,9.64
2022-10-07T02:34:46.509Z,9.60
2022-10-07T02:37:56.680Z,9.57
2022-10-07T02:41:09.135Z,9.51
2022-10-07T02:44:26.068Z,9.47
2022-10-07T02:47:41.371Z,9.41
2022-10-07T02:50:53.327Z,9.35
2022-10-07T02:54:03.897Z,9.27
2022-10-07T02:57:12.163Z,9.21
2022-10-07T03:00:19.115Z,9.11
2022-10-07T03:03:33.462Z,9.03
2022-10-07T03:06:43.101Z,8.97
2022-10-07T03:09:49.991Z,9.00
2022-10-07T03:12:55.973Z,8.98
2022-10-07T03:16:05.652Z,8.98
2022-10-07T03:19:14.536Z,8.99
2022-10-07T03:22:31.587Z,8.93
2022-10-07T03:25:38.693Z,8.89
2022-10-07T03:28:45.343Z,8.86
2022-10-07T03:31:51.673Z,8.84
2022-10-07T03:35:00.936Z,8.76
2022-10-07T03:38:10.114Z,8.74
2022-10-07T03:41:19.226Z,8.67
2022-10-07T03:44:28.148Z,8.66
2022-10-07T03:47:36.346Z,8.68
2022-10-07T03:50:52.359Z,8.66
2022-10-07T03:54:01.119Z,8.63
2022-10-07T03:57:31.362Z,8.61
2022-10-07T04:00:40.465Z,8.59
2022-10-07T04:03:46.580Z,8.53
2022-10-07T04:06:56.150Z,8.54
2022-10-07T04:10:03.952Z,8.53
2022-10-07T04:13:10.485Z,8.50
2022-10-07T04:16:16.224Z,8.52
2022-10-07T04:19:22.750Z,8.53
2022-10-07T04:22:31.236Z,8.55
2022-10-07T04:25:38.742Z,8.53
2022-10-07T04:28:49.678Z,8.54
2022-10-07T04:31:59.249Z,8.55
2022-10-07T04:35:07.818Z,8.56
2022-10-07T04:38:18.275Z,8.57
2022-10-07T04:41:25.827Z,8.50
2022-10-07T04:44:32.627Z,8.48
2022-10-07T04:47:44.335Z,8.49
2022-10-07T04:50:52.103Z,8.52
2022-10-07T04:54:03.746Z,8.52
2022-10-07T04:57:28.408Z,8.48
2022-10-07T05:00:36.069Z,8.41
2022-10-07T05:03:43.805Z,8.34
2022-10-07T05:06:50.199Z,8.25
2022-10-07T05:09:59.760Z,8.22
2022-10-07T05:13:09.601Z,8.18
2022-10-07T05:16:16.291Z,8.26
2022-10-07T05:19:22.393Z,8.28
2022-10-07T05:22:29.341Z,8.28
2022-10-07T05:25:38.471Z,8.28
2022-10-07T05:28:47.111Z,8.30
2022-10-07T05:31:58.781Z,8.31
2022-10-07T05:35:12.147Z,8.34
2022-10-07T05:38:18.014Z,8.33
2022-10-07T05:41:28.442Z,8.39
2022-10-07T05:44:35.380Z,8.40
2022-10-07T05:47:43.841Z,8.40
2022-10-07T05:50:50.914Z,8.49
2022-10-07T05:53:58.578Z,8.61
2022-10-07T05:57:13.535Z,8.74
2022-10-07T06:00:21.149Z,8.81
2022-10-07T06:03:30.088Z,8.83
2022-10-07T06:06:38.860Z,8.90
2022-10-07T06:10:03.766Z,8.98
2022-10-07T06:13:14.159Z,9.06
2022-10-07T06:16:27.373Z,9.22
2022-10-07T06:19:34.532Z,9.38
2022-10-07T06:22:43.099Z,9.52
2022-10-07T06:25:55.934Z,9.66
2022-10-07T06:29:07.138Z,9.74
2022-10-07T06:32:13.850Z,9.84
2022-10-07T06:35:20.670Z,9.96
2022-10-07T06:38:29.360Z,10.08
2022-10-07T06:41:35.079Z,10.18
2022-10-07T06:44:53.991Z,10.29
2022-10-07T06:48:03.895Z,10.42
2022-10-07T06:51:15.751Z,10.51
2022-10-07T06:54:21.923Z,10.63
2022-10-07T06:57:44.936Z,10.73
2022-10-07T07:00:55.263Z,10.86
2022-10-07T07:04:03.705Z,10.97
2022-10-07T07:07:10.382Z,11.01
2022-10-07T07:10:18.852Z,11.06
2022-10-07T07:13:29.666Z,11.15
2022-10-07T07:16:39.190Z,11.24
2022-10-07T07:19:44.965Z,11.35
2022-10-07T07:22:52.581Z,11.48
2022-10-07T07:25:58.319Z,11.57
2022-10-07T07:29:12.536Z,11.69
2022-10-07T07:32:30.303Z,11.81
2022-10-07T07:35:41.644Z,11.92
2022-10-07T07:38:54.011Z,12.01
2022-10-07T07:42:04.047Z,12.06
2022-10-07T07:45:12.399Z,12.14
2022-10-07T07:48:22.027Z,12.27
2022-10-07T07:51:28.613Z,12.36
2022-10-07T07:54:37.761Z,12.45
2022-10-07T07:57:44.251Z,12.55
2022-10-07T08:01:01.098Z,12.67
2022-10-07T08:04:13.761Z,12.75
2022-10-07T08:07:20.498Z,12.85
2022-10-07T08:10:29.203Z,12.93
2022-10-07T08:13:36.650Z,13.06
2022-10-07T08:16:43.639Z,13.16
2022-10-07T08:19:56.377Z,13.27
2022-10-07T08:23:03.507Z,13.39
2022-10-07T08:26:12.942Z,13.51
2022-10-07T08:29:19.617Z,13.60
2022-10-07T08:32:26.359Z,13.68
2022-10-07T08:35:34.772Z,13.77
2022-10-07T08:38:43.462Z,13.82
2022-10-07T08:41:57.559Z,13.93
2022-10-07T08:45:08.720Z,14.01
2022-10-07T08:48:20.072Z,14.09
2022-10-07T08:51:37.812Z,14.18
2022-10-07T08:54:59.440Z,14.26
2022-10-07T08:58:45.713Z,14.39
2022-10-07T09:02:23.018Z,14.51
2022-10-07T09:05:47.360Z,14.61
2022-10-07T09:09:18.006Z,14.71
2022-10-07T09:12:46.896Z,14.82
2022-10-07T09:16:15.001Z,14.91
2022-10-07T09:19:46.660Z,14.99
2022-10-07T09:23:08.754Z,15.08
2022-10-07T09:26:37.962Z,15.17
2022-10-07T09:30:04.075Z,15.25
2022-10-07T09:33:27.982Z,15.32
2022-10-07T09:37:13.893Z,15.48
2022-10-07T09:40:59.007Z,15.62
2022-10-07T09:44:29.475Z,15.80
2022-10-07T09:47:54.682Z,15.95
2022-10-07T09:51:17.102Z,16.09
2022-10-07T09:54:39.510Z,16.25
2022-10-07T09:58:04.331Z,16.44
2022-10-07T10:01:31.269Z,16.61
2022-10-07T10:04:53.894Z,16.77
2022-10-07T10:08:27.187Z,16.98
2022-10-07T10:11:48.332Z,17.13
2022-10-07T10:15:28.898Z,17.31
2022-10-07T10:18:43.255Z,17.47
2022-10-07T10:21:56.319Z,17.58
2022-10-07T10:25:18.548Z,17.63
2022-10-07T10:28:38.521Z,17.63
2022-10-07T10:32:03.972Z,17.62
2022-10-07T10:35:17.750Z,17.60
2022-10-07T10:38:46.628Z,17.63
2022-10-07T10:41:58.009Z,17.68
2022-10-07T10:45:18.539Z,17.77
2022-10-07T10:48:32.459Z,17.88
2022-10-07T10:51:59.474Z,17.99
2022-10-07T10:55:35.533Z,18.14
2022-10-07T10:58:55.718Z,18.32
2022-10-07T11:02:21.926Z,18.43
2022-10-07T11:05:32.226Z,18.53
2022-10-07T11:08:41.863Z,18.63
2022-10-07T11:11:48.983Z,18.65
2022-10-07T11:14:58.431Z,18.63
2022-10-07T11:18:14.577Z,18.56
2022-10-07T11:21:27.860Z,18.49
2022-10-07T11:24:42.351Z,18.47
2022-10-07T11:27:49.849Z,18.45
2022-10-07T11:31:06.407Z,18.43
2022-10-07T11:34:19.723Z,18.37
2022-10-07T11:37:34.163Z,18.39
2022-10-07T11:40:46.908Z,18.38
2022-10-07T11:43:57.227Z,18.36
2022-10-07T11:47:06.366Z,18.34
2022-10-07T11:50:19.966Z,18.36
2022-10-07T11:53:29.155Z,18.38
2022-10-07T11:56:48.313Z,18.39
2022-10-07T12:00:01.079Z,18.40
2022-10-07T12:03:50.465Z,18.49
2022-10-07T12:07:33.382Z,18.50
2022-10-07T12:10:39.887Z,18.50
2022-10-07T12:13:49.868Z,18.53
2022-10-07T12:16:58.198Z,18.57
2022-10-07T12:20:46.450Z,18.67
2022-10-07T12:24:17.472Z,18.73
2022-10-07T12:27:27.733Z,18.79
2022-10-07T12:30:52.078Z,18.84
2022-10-07T12:34:00.032Z,18.87
2022-10-07T12:37:44.468Z,18.95
2022-10-07T12:40:55.146Z,18.99
2022-10-07T12:44:08.387Z,19.02
2022-10-07T12:47:25.050Z,19.08
2022-10-07T12:50:33.713Z,19.13
2022-10-07T12:53:44.205Z,19.21
2022-10-07T12:56:53.242Z,19.28
2022-10-07T13:00:08.403Z,19.35
2022-10-07T13:03:38.995Z,19.45
2022-10-07T13:07:24.356Z,19.56
2022-10-07T13:11:14.042Z,19.62
2022-10-07T13:14:26.597Z,19.63
2022-10-07T13:17:44.536Z,19.70
2022-10-07T13:21:08.582Z,19.76
2022-10-07T13:24:18.764Z,19.78
2022-10-07T13:27:29.545Z,19.82
2022-10-07T13:30:40.479Z,19.87
2022-10-07T13:33:46.261Z,19.90
2022-10-07T13:36:55.480Z,19.87
2022-10-07T13:40:22.943Z,19.87
2022-10-07T13:43:32.273Z,19.87
2022-10-07T13:46:39.457Z,19.93
2022-10-07T13:49:48.412Z,19.96
2022-10-07T13:52:58.514Z,19.99
2022-10-07T13:56:18.890Z,20.01
2022-10-07T13:59:25.386Z,20.08
2022-10-07T14:02:36.454Z,20.23
2022-10-07T14:05:52.539Z,20.41
2022-10-07T14:09:03.469Z,20.63
2022-10-07T14:12:14.562Z,20.93
2022-10-07T14:15:24.840Z,21.09
2022-10-07T14:18:32.179Z,21.23
2022-10-07T14:21:43.424Z,21.09
2022-10-07T14:25:03.668Z,20.94
2022-10-07T14:28:19.773Z,20.92
2022-10-07T14:31:45.227Z,20.85
2022-10-07T14:35:07.532Z,20.66
2022-10-07T14:38:23.181Z,20.58
2022-10-07T14:41:34.609Z,20.53
2022-10-07T14:44:44.234Z,20.63
2022-10-07T14:47:51.696Z,20.56
2022-10-07T14:50:57.614Z,20.57
2022-10-07T14:54:06.795Z,20.61
2022-10-07T14:57:15.213Z,20.65
2022-10-07T15:00:24.583Z,20.63
2022-10-07T15:03:31.067Z,20.61
2022-10-07T15:06:39.128Z,20.49
2022-10-07T15:09:44.751Z,20.40
2022-10-07T15:12:54.300Z,20.21
2022-10-07T15:16:00.167Z,20.06
2022-10-07T15:19:09.430Z,19.91
2022-10-07T15:22:15.070Z,19.75
2022-10-07T15:25:22.165Z,19.61
2022-10-07T15:28:31.367Z,19.52
2022-10-07T15:31:38.433Z,19.50
2022-10-07T15:34:46.056Z,19.46
2022-10-07T15:37:53.364Z,19.37
2022-10-07T15:41:00.463Z,19.28
2022-10-07T15:44:16.620Z,19.18
2022-10-07T15:47:22.665Z,19.10
2022-10-07T15:50:29.137Z,18.99
2022-10-07T15:53:36.393Z,18.88
2022-10-07T15:56:43.318Z,18.76
2022-10-07T15:59:53.629Z,18.68
2022-10-07T16:03:04.605Z,18.57
2022-10-07T16:06:12.556Z,18.47
2022-10-07T16:09:18.981Z,18.38
2022-10-07T16:12:24.564Z,18.30
2022-10-07T16:15:35.895Z,18.21
2022-10-07T16:18:44.010Z,18.11
2022-10-07T16:21:50.438Z,17.99
2022-10-07T16:24:56.000Z,17.86
2022-10-07T16:28:18.737Z,17.72
2022-10-07T16:31:27.318Z,17.61
2022-10-07T16:34:34.515Z,17.53
2022-10-07T16:37:40.122Z,17.44
2022-10-07T16:40:54.810Z,17.37
2022-10-07T16:44:01.283Z,17.32
2022-10-07T16:47:11.697Z,17.21
2022-10-07T16:50:17.517Z,17.10
2022-10-07T16:53:23.986Z,17.00
2022-10-07T16:56:30.105Z,16.93
2022-10-07T16:59:36.577Z,16.84
2022-10-07T17:02:45.001Z,16.77
2022-10-07T17:05:58.260Z,16.71
2022-10-07T17:09:07.544Z,16.62
2022-10-07T17:12:14.320Z,16.54
2022-10-07T17:15:20.091Z,16.47
2022-10-07T17:18:31.483Z,16.42
2022-10-07T17:21:40.238Z,16.35
2022-10-07T17:24:46.684Z,16.28
2022-10-07T17:27:52.323Z,16.25
2022-10-07T17:30:59.384Z,16.20
2022-10-07T17:34:10.133Z,16.16
2022-10-07T17:37:16.727Z,16.11
2022-10-07T17:40:22.350Z,16.09
2022-10-07T17:43:28.783Z,16.07
2022-10-07T17:46:37.026Z,16.00
2022-10-07T17:49:46.345Z,15.95
2022-10-07T17:52:51.966Z,15.93
2022-10-07T17:55:58.658Z,15.88
2022-10-07T17:59:07.109Z,15.81
2022-10-07T18:02:13.659Z,15.74
2022-10-07T18:05:22.660Z,15.68
2022-10-07T18:08:29.089Z,15.64
2022-10-07T18:11:56.351Z,15.59
2022-10-07T18:15:18.537Z,15.55
2022-10-07T18:18:24.371Z,15.51
2022-10-07T18:21:34.615Z,15.48
2022-10-07T18:24:40.191Z,15.45
2022-10-07T18:27:47.223Z,15.42
2022-10-07T18:30:53.533Z,15.37
2022-10-07T18:37:40.432Z,15.28
2022-10-07T18:40:46.870Z,15.24
2022-10-07T18:43:52.690Z,15.20
2022-10-07T18:46:59.604Z,15.18
2022-10-07T18:50:08.606Z,15.16
2022-10-07T18:53:17.817Z,15.14
2022-10-07T18:56:25.248Z,15.12
2022-10-07T18:59:31.719Z,15.12
2022-10-07T19:02:37.351Z,15.07
2022-10-07T19:05:44.385Z,14.99
2022-10-07T19:08:55.865Z,14.94
2022-10-07T19:12:03.963Z,14.87
2022-10-07T19:15:07.607Z,14.83
2022-10-07T19:18:14.228Z,14.80
2022-10-07T19:21:21.235Z,14.76
2022-10-07T19:24:42.893Z,14.73
2022-10-07T19:27:48.689Z,14.68
2022-10-07T19:30:56.474Z,14.66
2022-10-07T19:34:04.661Z,14.67
2022-10-07T19:37:11.859Z,14.67
2022-10-07T19:40:20.339Z,14.67
2022-10-07T19:43:26.732Z,14.65
2022-10-07T19:46:34.687Z,14.63
2022-10-07T19:49:41.125Z,14.60
2022-10-07T19:52:47.132Z,14.59
2022-10-07T19:55:57.687Z,14.56
2022-10-07T19:59:06.384Z,14.51
2022-10-07T20:02:14.493Z,14.49
2022-10-07T20:05:20.159Z,14.45
2022-10-07T20:08:26.581Z,14.43
2022-10-07T20:11:37.653Z,14.38
2022-10-07T20:14:44.108Z,14.34
2022-10-07T20:17:50.114Z,14.31
2022-10-07T20:21:03.646Z,14.30
2022-10-07T20:24:10.860Z,14.27
2022-10-07T20:27:20.220Z,14.22
2022-10-07T20:30:25.818Z,14.20
2022-10-07T20:33:34.679Z,14.19
2022-10-07T20:36:42.212Z,14.16
2022-10-07T20:40:05.069Z,14.15
2022-10-07T20:43:13.492Z,14.09
2022-10-07T20:46:20.217Z,14.08
2022-10-07T20:49:28.354Z,14.03
2022-10-07T20:52:38.006Z,14.01
2022-10-07T20:55:43.561Z,13.98
2022-10-07T20:58:53.495Z,13.95
2022-10-07T21:01:59.515Z,13.94
2022-10-07T21:05:08.107Z,13.94
2022-10-07T21:08:13.911Z,13.92
2022-10-07T21:11:20.556Z,13.89
2022-10-07T21:14:29.605Z,13.87
2022-10-07T21:17:36.837Z,13.85
2022-10-07T21:20:56.510Z,13.84
2022-10-07T21:24:03.940Z,13.81
2022-10-07T21:27:11.625Z,13.80
2022-10-07T21:30:21.051Z,13.80
2022-10-07T21:33:27.591Z,13.77
2022-10-07T21:36:34.253Z,13.77
2022-10-07T21:39:40.197Z,13.77
2022-10-07T21:42:47.224Z,13.77
2022-10-07T21:45:55.798Z,13.75
2022-10-07T21:49:03.450Z,13.74
2022-10-07T21:52:09.031Z,13.74
2022-10-07T21:55:15.488Z,13.73
2022-10-07T21:58:21.973Z,13.69
2022-10-07T22:01:32.280Z,13.65
2022-10-07T22:04:37.979Z,13.62
2022-10-07T22:08:03.474Z,13.58
2022-10-07T22:11:12.131Z,13.53
2022-10-07T22:14:19.245Z,13.47
2022-10-07T22:17:27.681Z,13.44
2022-10-07T22:20:36.735Z,13.40
2022-10-07T22:23:42.720Z,13.35
2022-10-07T22:26:51.550Z,13.34
2022-10-07T22:29:57.280Z,13.32
2022-10-07T22:33:06.907Z,13.28
2022-10-07T22:36:14.981Z,13.24
2022-10-07T22:39:21.398Z,13.21
2022-10-07T22:42:27.006Z,13.17
2022-10-07T22:45:34.003Z,13.15
2022-10-07T22:48:43.431Z,13.11
2022-10-07T22:51:49.897Z,13.08
2022-10-07T22:54:55.514Z,13.05
2022-10-07T22:58:03.319Z,13.04
2022-10-07T23:01:10.664Z,13.01
2022-10-07T23:04:20.461Z,12.99
2022-10-07T23:07:26.157Z,12.96
2022-10-07T23:10:32.685Z,12.93
2022-10-07T23:13:39.991Z,12.88
2022-10-07T23:16:46.410Z,12.86
2022-10-07T23:19:54.731Z,12.83
2022-10-07T23:23:01.186Z,12.80
2022-10-07T23:26:13.901Z,12.77
2022-10-07T23:29:20.818Z,12.74
2022-10-07T23:32:26.414Z,12.73
2022-10-07T23:35:35.641Z,12.72
2022-10-07T23:38:44.882Z,12.68
2022-10-07T23:41:51.672Z,12.67
2022-10-07T23:44:57.712Z,12.67
2022-10-07T23:48:04.630Z,12.65
2022-10-07T23:51:14.871Z,12.63
2022-10-07T23:54:21.284Z,12.64
2022-10-07T23:57:26.856Z,12.65
